Time;durP1;ratioP1;P1;durP2;ratioP2;P2;SDS_P1;SDS_P2;PMS_P1;PMS_P2;Temp;Humidity;BMP_temperature;BMP_pressure;BME280_temperature;BME280_humidity;BME280_pressure;Samples;Min_cycle;Max_cycle;Signal;HPM_P1;HPM_P2
2022/03/04 00:01:17;;;;;;;132.45;78.32;;;;;;;12.97;100.00;99054.88;6136629;23;20049;-81
2022/03/04 00:03:44;;;;;;;132.30;79.55;;;;;;;12.45;100.00;99038.22;6137670;23;20035;-80
2022/03/04 00:06:13;;;;;;;133.70;77.88;;;;;;;12.35;100.00;99060.50;6187916;23;20317;-83
2022/03/04 00:08:39;;;;;;;119.30;72.05;;;;;;;12.20;100.00;99025.72;6160649;23;20467;-83
2022/03/04 00:11:05;;;;;;;121.82;72.30;;;;;;;12.23;100.00;99046.38;6136723;23;20023;-83
2022/03/04 00:13:32;;;;;;;119.80;73.70;;;;;;;12.37;100.00;99066.38;6160224;23;20009;-82
2022/03/04 00:15:58;;;;;;;114.70;72.28;;;;;;;12.25;100.00;99052.25;6160678;23;20017;-83
2022/03/04 00:18:28;;;;;;;123.57;75.15;;;;;;;12.31;100.00;99069.03;6136583;23;20020;-82
2022/03/04 00:20:54;;;;;;;120.85;72.25;;;;;;;12.26;100.00;99045.97;6138724;23;20470;-83
2022/03/04 00:23:23;;;;;;;130.18;78.20;;;;;;;12.27;100.00;99037.03;6161223;23;20019;-82
2022/03/04 00:25:49;;;;;;;120.55;73.80;;;;;;;12.28;100.00;99049.19;6134192;23;20013;-82
2022/03/04 00:28:15;;;;;;;125.30;74.85;;;;;;;12.37;100.00;99066.38;6160384;23;20024;-82
2022/03/04 00:30:43;;;;;;;123.68;75.22;;;;;;;12.33;100.00;99046.75;6136299;23;20012;-82
2022/03/04 00:33:09;;;;;;;126.00;75.82;;;;;;;12.45;100.00;99064.56;6159935;23;20009;-81
2022/03/04 00:35:41;;;;;;;119.88;74.50;;;;;;;12.38;100.00;99073.28;6136580;23;20013;-81
2022/03/04 00:38:09;;;;;;;109.60;69.55;;;;;;;12.23;100.00;99062.94;6135907;23;20052;-82
2022/03/04 00:40:38;;;;;;;91.05;62.60;;;;;;;11.97;100.00;99048.78;6164600;23;20035;-81
2022/03/04 00:43:05;;;;;;;88.32;61.17;;;;;;;11.66;100.00;99017.84;6169664;23;20013;-83
2022/03/04 00:45:31;;;;;;;89.55;60.78;;;;;;;11.65;100.00;99018.84;6192096;23;20096;-82
2022/03/04 00:47:57;;;;;;;73.57;53.75;;;;;;;11.91;100.00;99064.56;6164853;23;20410;-83
2022/03/04 00:50:23;;;;;;;74.70;54.25;;;;;;;11.78;100.00;99054.88;6163136;23;20009;-82
2022/03/04 00:52:49;;;;;;;78.57;53.67;;;;;;;11.66;100.00;99073.84;6138079;23;20020;-82
2022/03/04 00:55:24;;;;;;;67.45;50.60;;;;;;;11.53;100.00;99063.34;6187470;23;20023;-82
2022/03/04 00:57:52;;;;;;;52.38;39.30;;;;;;;11.57;100.00;99080.31;6162667;23;20067;-82
2022/03/04 01:00:18;;;;;;;31.70;24.75;;;;;;;11.38;100.00;99066.13;6162266;23;20502;-80
2022/03/04 01:02:51;;;;;;;24.65;19.60;;;;;;;11.56;100.00;99070.81;6136434;23;20025;-81
2022/03/04 01:05:18;;;;;;;16.77;13.43;;;;;;;11.78;100.00;99053.03;6138481;23;20036;-81
2022/03/04 01:07:44;;;;;;;13.93;11.85;;;;;;;11.98;100.00;99083.78;6136640;23;20016;-81
2022/03/04 01:10:13;;;;;;;13.23;11.10;;;;;;;11.22;100.00;99077.81;6161406;23;20036;-81
2022/03/04 01:12:40;;;;;;;12.77;9.93;;;;;;;11.74;100.00;99079.94;6163287;23;20009;-81
2022/03/04 01:15:07;;;;;;;14.52;11.10;;;;;;;10.73;100.00;99042.88;6140068;23;20081;-80
2022/03/04 01:17:33;;;;;;;14.18;10.93;;;;;;;10.98;100.00;99074.72;6160899;23;20029;-83
2022/03/04 01:19:58;;;;;;;13.85;11.10;;;;;;;10.81;100.00;99082.13;6160539;23;20032;-83
2022/03/04 01:22:24;;;;;;;14.23;11.30;;;;;;;10.59;100.00;99063.81;6186501;23;20439;-83
2022/03/04 01:24:50;;;;;;;16.38;11.90;;;;;;;10.92;100.00;99073.66;6159936;23;20009;-81
2022/03/04 01:27:18;;;;;;;15.07;11.98;;;;;;;10.35;100.00;99079.00;6160643;23;20009;-81
2022/03/04 01:29:43;;;;;;;15.93;12.60;;;;;;;10.31;100.00;99066.44;6187439;23;20024;-80
2022/03/04 01:32:09;;;;;;;20.02;13.05;;;;;;;10.85;100.00;99062.34;6162223;23;20070;-80
2022/03/04 01:34:35;;;;;;;17.02;12.23;;;;;;;10.06;100.00;99077.38;6162229;23;20063;-81
2022/03/04 01:37:01;;;;;;;16.52;12.63;;;;;;;9.94;100.00;99066.59;6135777;23;20100;-82
2022/03/04 01:39:27;;;;;;;16.48;12.07;;;;;;;9.88;100.00;99054.25;6186345;23;20076;-82
2022/03/04 01:41:53;;;;;;;16.27;11.63;;;;;;;9.64;100.00;99058.88;6160727;23;20495;-82
2022/03/04 01:44:20;;;;;;;14.68;10.77;;;;;;;9.70;100.00;99058.13;6160970;23;20344;-81
2022/03/04 01:46:46;;;;;;;13.70;10.73;;;;;;;9.68;100.00;99068.00;6161327;23;20064;-81
2022/03/04 01:49:11;;;;;;;14.75;11.13;;;;;;;9.66;100.00;99080.47;6137448;23;20065;-81
2022/03/04 01:51:37;;;;;;;15.07;11.02;;;;;;;9.71;100.00;99083.34;6188446;23;20031;-81
2022/03/04 01:54:04;;;;;;;14.23;10.25;;;;;;;9.68;100.00;99088.97;6161063;23;20013;-80
2022/03/04 01:56:30;;;;;;;14.27;10.48;;;;;;;9.95;100.00;99082.13;6135735;23;20005;-81
2022/03/04 01:58:56;;;;;;;12.65;10.18;;;;;;;9.72;100.00;99058.75;6160859;23;20084;-80
2022/03/04 02:01:22;;;;;;;11.20;8.68;;;;;;;9.57;100.00;99096.31;6136315;23;20452;-80
2022/03/04 02:03:49;;;;;;;11.13;8.25;;;;;;;9.46;100.00;99062.75;6187245;23;20036;-79
2022/03/04 02:06:15;;;;;;;9.73;7.18;;;;;;;9.25;100.00;99074.84;6136048;23;20348;-82
2022/03/04 02:08:41;;;;;;;10.32;7.45;;;;;;;9.51;100.00;99094.44;6135678;23;20040;-82
2022/03/04 02:11:07;;;;;;;10.82;7.35;;;;;;;9.57;100.00;99092.88;6135680;23;20017;-81
2022/03/04 02:13:34;;;;;;;7.88;6.03;;;;;;;9.29;100.00;99073.47;6160170;23;20017;-80
2022/03/04 02:16:00;;;;;;;8.00;5.70;;;;;;;9.41;100.00;99059.84;6159479;23;20024;-80
2022/03/04 02:18:26;;;;;;;6.82;5.15;;;;;;;9.39;100.00;99054.00;6135448;23;20017;-80
2022/03/04 02:21:01;;;;;;;5.00;4.15;;;;;;;9.29;100.00;99083.94;6135293;23;20013;-80
2022/03/04 02:23:27;;;;;;;5.38;3.58;;;;;;;9.32;100.00;99080.13;6160026;23;20009;-80
2022/03/04 02:25:53;;;;;;;4.60;3.72;;;;;;;9.45;100.00;99089.94;6135926;23;20116;-80
2022/03/04 02:28:21;;;;;;;4.57;3.67;;;;;;;9.40;100.00;99072.16;6160381;23;20012;-82
2022/03/04 02:30:47;;;;;;;3.33;2.90;;;;;;;9.33;100.00;99091.41;6161517;23;20045;-80
2022/03/04 02:33:13;;;;;;;3.60;2.85;;;;;;;9.16;100.00;99067.28;6161999;23;20020;-82
2022/03/04 02:35:41;;;;;;;4.43;3.10;;;;;;;9.04;100.00;99065.13;6138401;23;20020;-82
2022/03/04 02:38:10;;;;;;;3.20;2.60;;;;;;;9.19;100.00;99059.03;6163117;23;20500;-81
2022/03/04 02:40:36;;;;;;;3.00;2.70;;;;;;;9.08;100.00;99078.66;6164300;23;20009;-82
2022/03/04 02:43:04;;;;;;;2.70;2.47;;;;;;;9.14;100.00;99094.44;6162287;23;20465;-82
2022/03/04 02:45:31;;;;;;;3.28;2.53;;;;;;;9.12;100.00;99093.00;6138213;23;20015;-82
2022/03/04 02:47:56;;;;;;;3.00;2.70;;;;;;;9.19;100.00;99086.03;6163389;23;20347;-79
2022/03/04 02:50:22;;;;;;;2.75;2.53;;;;;;;8.95;100.00;99068.84;6139011;23;20005;-81
2022/03/04 02:52:48;;;;;;;3.10;2.65;;;;;;;8.98;100.00;99079.75;6138995;23;20099;-80
2022/03/04 02:55:13;;;;;;;3.22;2.40;;;;;;;9.17;100.00;99098.50;6142048;23;20017;-81
2022/03/04 02:57:46;;;;;;;3.30;2.70;;;;;;;9.32;100.00;99102.91;6166355;23;20013;-80
2022/03/04 03:00:15;;;;;;;5.45;2.88;;;;;;;9.19;100.00;99096.50;6163272;23;20013;-82
2022/03/04 03:02:41;;;;;;;3.53;2.88;;;;;;;9.14;100.00;99072.69;6162526;23;20013;-81
2022/03/04 03:05:08;;;;;;;4.82;2.92;;;;;;;9.15;100.00;99095.25;6188206;23;20009;-82
2022/03/04 03:07:34;;;;;;;2.92;2.42;;;;;;;9.09;100.00;99096.00;6137206;23;20102;-82
2022/03/04 03:10:01;;;;;;;2.90;2.55;;;;;;;8.98;100.00;99095.44;6161516;23;20040;-80
2022/03/04 03:12:27;;;;;;;2.72;2.10;;;;;;;9.23;100.00;99086.47;6187969;23;20305;-81
2022/03/04 03:14:52;;;;;;;3.58;2.58;;;;;;;8.89;100.00;99088.72;6161608;23;20025;-81
2022/03/04 03:17:18;;;;;;;3.47;2.67;;;;;;;8.89;100.00;99083.47;6161394;23;20563;-80
2022/03/04 03:19:44;;;;;;;6.30;2.88;;;;;;;9.04;100.00;99109.63;6188451;23;20455;-80
2022/03/04 03:22:10;;;;;;;2.78;2.47;;;;;;;9.03;100.00;99101.94;6137179;23;20088;-79
2022/03/04 03:24:36;;;;;;;4.25;2.53;;;;;;;9.07;100.00;99100.59;6162271;23;20017;-80
2022/03/04 03:27:02;;;;;;;2.67;2.38;;;;;;;8.86;100.00;99095.09;6136704;23;20017;-80
2022/03/04 03:29:28;;;;;;;3.70;2.10;;;;;;;8.50;100.00;99081.94;6161654;23;20013;-79
2022/03/04 03:31:54;;;;;;;2.40;1.90;;;;;;;9.01;100.00;99099.53;6161619;23;20045;-80
2022/03/04 03:34:19;;;;;;;2.33;2.03;;;;;;;9.10;100.00;99102.84;6188101;23;20068;-82
2022/03/04 03:36:45;;;;;;;2.20;1.92;;;;;;;8.99;100.00;99107.53;6161476;23;20071;-81
2022/03/04 03:39:10;;;;;;;3.38;2.35;;;;;;;8.56;100.00;99092.50;6137261;23;20063;-82
2022/03/04 03:41:36;;;;;;;2.15;1.95;;;;;;;8.69;100.00;99110.19;6162105;23;20017;-83
2022/03/04 03:44:02;;;;;;;2.53;2.15;;;;;;;8.71;100.00;99108.19;6161758;23;20009;-82
2022/03/04 03:46:28;;;;;;;2.50;2.30;;;;;;;8.55;100.00;99082.22;6162017;23;20013;-81
2022/03/04 03:48:54;;;;;;;3.65;2.38;;;;;;;8.71;100.00;99110.81;6161693;23;20017;-81
2022/03/04 03:51:22;;;;;;;3.17;2.40;;;;;;;8.73;100.00;99096.75;6136744;23;20072;-81
2022/03/04 03:53:47;;;;;;;2.97;2.50;;;;;;;8.57;100.00;99095.91;6161069;23;20013;-81
2022/03/04 03:56:13;;;;;;;3.70;3.00;;;;;;;8.40;100.00;99085.59;6161776;23;20013;-82
2022/03/04 03:58:39;;;;;;;3.75;3.15;;;;;;;8.21;100.00;99105.25;6137111;23;20017;-82
2022/03/04 04:01:08;;;;;;;5.72;3.05;;;;;;;8.32;100.00;99117.06;6187471;23;20020;-80
2022/03/04 04:03:33;;;;;;;4.43;3.55;;;;;;;8.26;100.00;99107.31;6161309;23;20076;-81
2022/03/04 04:05:59;;;;;;;3.78;3.10;;;;;;;8.44;100.00;99113.00;6160892;23;20028;-80
2022/03/04 04:08:27;;;;;;;5.70;3.63;;;;;;;8.00;100.00;99113.72;6161021;23;20479;-82
2022/03/04 04:10:57;;;;;;;4.68;3.67;;;;;;;8.23;100.00;99118.13;6137293;23;20056;-79
2022/03/04 04:13:22;;;;;;;5.22;3.45;;;;;;;7.82;100.00;99133.13;6186741;23;20012;-83
2022/03/04 04:15:48;;;;;;;4.28;3.55;;;;;;;8.08;100.00;99132.00;6160618;23;20045;-80
2022/03/04 04:18:14;;;;;;;4.43;3.50;;;;;;;8.03;100.00;99133.50;6186250;23;20017;-81
2022/03/04 04:20:40;;;;;;;4.32;3.63;;;;;;;8.17;100.00;99111.00;6160878;23;20077;-80
2022/03/04 04:23:06;;;;;;;4.80;3.67;;;;;;;8.16;100.00;99123.25;6161161;23;20016;-83
2022/03/04 04:25:31;;;;;;;3.47;3.17;;;;;;;7.93;100.00;99126.69;6136572;23;20055;-81
2022/03/04 04:27:57;;;;;;;4.90;3.67;;;;;;;7.96;100.00;99128.97;6161780;23;20515;-81
2022/03/04 04:30:23;;;;;;;4.43;3.70;;;;;;;8.00;100.00;99108.50;6137532;23;20312;-85
2022/03/04 04:32:49;;;;;;;4.10;3.40;;;;;;;7.85;100.00;99114.50;6136939;23;20055;-80
2022/03/04 04:35:17;;;;;;;3.90;3.47;;;;;;;7.59;100.00;99122.69;6161367;23;20443;-80
2022/03/04 04:37:43;;;;;;;3.97;3.17;;;;;;;7.99;100.00;99135.63;6160659;23;20471;-81
2022/03/04 04:40:10;;;;;;;3.78;3.38;;;;;;;7.77;100.00;99132.84;6160442;23;20009;-81
2022/03/04 04:42:35;;;;;;;3.78;2.95;;;;;;;8.04;100.00;99125.47;6187047;23;20013;-81
2022/03/04 04:45:02;;;;;;;3.33;3.03;;;;;;;8.18;100.00;99141.38;6186605;23;20013;-80
2022/03/04 04:47:27;;;;;;;3.58;3.00;;;;;;;7.91;100.00;99131.28;6186370;23;20012;-81
2022/03/04 04:49:53;;;;;;;4.30;3.38;;;;;;;8.07;100.00;99140.81;6159235;23;20013;-83
2022/03/04 04:52:18;;;;;;;4.13;2.88;;;;;;;8.09;100.00;99133.63;6159514;23;20016;-82
2022/03/04 04:54:44;;;;;;;3.47;2.63;;;;;;;7.83;100.00;99158.28;6186376;23;20031;-82
2022/03/04 04:57:09;;;;;;;5.57;2.78;;;;;;;7.97;100.00;99158.53;6159866;23;20083;-80
2022/03/04 04:59:36;;;;;;;3.35;2.72;;;;;;;7.89;100.00;99162.00;6160143;23;20013;-80
2022/03/04 05:02:01;;;;;;;5.38;3.35;;;;;;;8.20;100.00;99157.69;6186055;23;20339;-80
2022/03/04 05:04:27;;;;;;;3.97;3.08;;;;;;;7.96;100.00;99160.34;6159618;23;20016;-80
2022/03/04 05:06:53;;;;;;;3.65;2.80;;;;;;;8.07;100.00;99160.91;6160148;23;20044;-80
2022/03/04 05:09:19;;;;;;;6.45;3.97;;;;;;;8.09;100.00;99170.22;6160111;23;20091;-80
2022/03/04 05:11:45;;;;;;;5.13;3.60;;;;;;;8.10;100.00;99164.00;6159775;23;20013;-81
2022/03/04 05:14:11;;;;;;;4.60;3.80;;;;;;;8.01;100.00;99178.09;6159559;23;20444;-82
2022/03/04 05:16:37;;;;;;;6.25;3.72;;;;;;;8.09;100.00;99172.81;6159143;23;20012;-82
2022/03/04 05:19:03;;;;;;;3.75;3.35;;;;;;;7.91;100.00;99174.91;6159784;23;20344;-82
2022/03/04 05:21:29;;;;;;;4.47;3.60;;;;;;;7.91;100.00;99180.94;6160177;23;20037;-83
2022/03/04 05:24:01;;;;;;;4.35;3.53;;;;;;;8.08;100.00;99183.44;6186296;23;20017;-83
2022/03/04 05:26:34;;;;;;;4.03;3.58;;;;;;;8.10;100.00;99184.91;6135680;23;20016;-82
2022/03/04 05:29:01;;;;;;;4.63;3.80;;;;;;;8.04;100.00;99182.19;6160434;23;20049;-81
2022/03/04 05:31:28;;;;;;;4.22;3.50;;;;;;;7.91;100.00;99194.00;6135188;23;20013;-82
2022/03/04 05:33:54;;;;;;;4.85;3.85;;;;;;;8.00;100.00;99198.22;6185850;23;20013;-81
2022/03/04 05:36:20;;;;;;;4.78;3.45;;;;;;;7.88;100.00;99201.41;6160978;23;20439;-80
2022/03/04 05:38:48;;;;;;;4.82;3.63;;;;;;;7.50;100.00;99217.75;6161145;23;20020;-82
2022/03/04 05:41:15;;;;;;;5.18;4.05;;;;;;;7.81;100.00;99209.13;6186984;23;20009;-79
2022/03/04 05:43:41;;;;;;;4.53;3.78;;;;;;;7.68;100.00;99210.47;6160590;23;20023;-81
2022/03/04 05:46:07;;;;;;;3.95;3.55;;;;;;;7.65;100.00;99210.81;6160935;23;20027;-80
2022/03/04 05:48:33;;;;;;;5.15;3.70;;;;;;;7.78;100.00;99215.47;6186646;23;20013;-82
2022/03/04 05:51:00;;;;;;;5.05;4.05;;;;;;;7.46;100.00;99203.41;6185995;23;20005;-81
2022/03/04 05:53:26;;;;;;;7.07;4.38;;;;;;;7.93;100.00;99212.16;6136642;23;20017;-82
2022/03/04 05:55:52;;;;;;;4.72;3.85;;;;;;;7.89;100.00;99221.31;6161259;23;20436;-82
2022/03/04 05:58:18;;;;;;;5.50;3.80;;;;;;;7.79;100.00;99201.44;6159860;23;20088;-82
2022/03/04 06:00:43;;;;;;;6.78;4.13;;;;;;;7.89;100.00;99211.66;6185734;23;20017;-80
2022/03/04 06:03:09;;;;;;;5.22;4.13;;;;;;;7.98;100.00;99215.03;6185795;23;20056;-80
2022/03/04 06:05:35;;;;;;;6.95;4.20;;;;;;;7.79;100.00;99219.72;6159295;23;20017;-80
2022/03/04 06:08:00;;;;;;;4.97;3.60;;;;;;;7.61;100.00;99221.78;6159737;23;20000;-81
2022/03/04 06:10:26;;;;;;;5.20;3.95;;;;;;;7.69;100.00;99234.81;6159597;23;20013;-81
2022/03/04 06:12:52;;;;;;;6.10;4.13;;;;;;;7.49;100.00;99230.00;6159785;23;20013;-80
2022/03/04 06:15:18;;;;;;;6.43;4.22;;;;;;;7.56;100.00;99248.41;6159312;23;20329;-81
2022/03/04 06:17:48;;;;;;;6.22;3.85;;;;;;;7.59;100.00;99237.63;6159858;23;20017;-80
2022/03/04 06:20:14;;;;;;;6.82;4.38;;;;;;;7.55;100.00;99231.94;6186660;23;20352;-83
2022/03/04 06:22:40;;;;;;;6.68;4.47;;;;;;;7.60;100.00;99243.66;6160709;23;20013;-81
2022/03/04 06:25:06;;;;;;;5.80;4.32;;;;;;;7.57;100.00;99235.19;6164437;23;20335;-81
2022/03/04 06:27:32;;;;;;;7.72;4.65;;;;;;;7.24;100.00;99243.13;6188413;23;20017;-80
2022/03/04 06:29:58;;;;;;;7.35;4.93;;;;;;;7.17;100.00;99250.00;6162927;23;20005;-80
2022/03/04 06:32:23;;;;;;;8.65;4.85;;;;;;;7.47;100.00;99237.19;6164052;23;20049;-80
2022/03/04 06:34:49;;;;;;;6.95;4.57;;;;;;;7.50;100.00;99222.97;6138877;23;20063;-81
2022/03/04 06:37:18;;;;;;;8.13;5.07;;;;;;;7.65;100.00;99262.25;6166783;23;20013;-80
2022/03/04 06:39:44;;;;;;;8.73;5.10;;;;;;;7.62;100.00;99252.97;6161066;23;20350;-80
2022/03/04 06:42:10;;;;;;;8.15;5.55;;;;;;;7.61;100.00;99243.50;6136491;23;20095;-81
2022/03/04 06:44:35;;;;;;;7.15;4.38;;;;;;;7.27;100.00;99239.38;6138037;23;20018;-81
2022/03/04 06:47:01;;;;;;;8.80;4.75;;;;;;;7.20;100.00;99254.88;6166237;23;20029;-82
2022/03/04 06:49:27;;;;;;;9.43;5.70;;;;;;;7.15;100.00;99254.59;6167559;23;20045;-82
2022/03/04 06:51:52;;;;;;;10.30;5.07;;;;;;;7.59;100.00;99258.53;6139644;23;20040;-80
2022/03/04 06:54:18;;;;;;;7.85;4.90;;;;;;;7.49;100.00;99248.28;6163435;23;20012;-80
2022/03/04 06:56:44;;;;;;;11.65;5.75;;;;;;;7.46;100.00;99268.69;6188269;23;20013;-80
2022/03/04 06:59:09;;;;;;;8.10;5.05;;;;;;;7.58;100.00;99249.88;6186953;23;20063;-82
2022/03/04 07:01:36;;;;;;;9.13;5.35;;;;;;;7.70;100.00;99252.13;6160795;23;20017;-82
2022/03/04 07:04:02;;;;;;;8.27;5.43;;;;;;;7.82;100.00;99266.41;6136217;23;20447;-81
2022/03/04 07:06:27;;;;;;;10.07;5.25;;;;;;;7.79;100.00;99279.81;6161109;23;20009;-82
2022/03/04 07:08:53;;;;;;;7.20;4.43;;;;;;;7.65;100.00;99270.91;6168982;23;20009;-82
2022/03/04 07:11:18;;;;;;;5.07;3.88;;;;;;;7.59;100.00;99284.66;6174337;23;20388;-84
2022/03/04 07:13:45;;;;;;;8.73;5.05;;;;;;;7.57;100.00;99270.97;6149906;23;20025;-83
2022/03/04 07:16:11;;;;;;;7.85;4.63;;;;;;;7.55;100.00;99280.72;6180213;23;20084;-84
2022/03/04 07:18:38;;;;;;;7.20;4.10;;;;;;;7.74;100.00;99297.00;6208488;23;20012;-84
2022/03/04 07:21:06;;;;;;;6.65;4.45;;;;;;;7.52;100.00;99271.47;6180953;23;20016;-86
2022/03/04 07:23:35;;;;;;;6.65;4.15;;;;;;;7.51;100.00;99282.88;6159007;23;20000;-85
2022/03/04 07:26:08;;;;;;;6.80;4.40;;;;;;;7.63;100.00;99311.25;6178503;23;20077;-83
2022/03/04 07:28:34;;;;;;;6.15;4.07;;;;;;;7.61;100.00;99276.63;6204060;23;20017;-85
2022/03/04 07:30:59;;;;;;;6.20;3.97;;;;;;;7.39;100.00;99313.78;6169652;23;20004;-84
2022/03/04 07:33:26;;;;;;;5.88;4.43;;;;;;;7.53;100.00;99301.81;6144555;23;20016;-86
2022/03/04 07:35:52;;;;;;;7.43;4.35;;;;;;;7.47;100.00;99312.94;6170997;23;20016;-86
2022/03/04 07:38:18;;;;;;;8.02;3.90;;;;;;;7.13;100.00;99313.97;6141100;23;20020;-83
2022/03/04 07:40:47;;;;;;;9.70;4.00;;;;;;;7.10;100.00;99306.47;6175543;23;20017;-85
2022/03/04 07:43:13;;;;;;;5.10;3.65;;;;;;;6.98;100.00;99278.09;6176603;23;20023;-82
2022/03/04 07:45:40;;;;;;;5.28;3.58;;;;;;;6.99;100.00;99292.78;6177422;23;20507;-84
2022/03/04 07:48:05;;;;;;;4.65;3.35;;;;;;;7.24;100.00;99313.63;6191486;23;20009;-84
2022/03/04 07:50:31;;;;;;;3.90;3.15;;;;;;;7.51;100.00;99334.31;6165443;23;20013;-83
2022/03/04 07:52:58;;;;;;;4.45;3.10;;;;;;;7.49;100.00;99328.44;6165494;23;20451;-84
2022/03/04 07:55:27;;;;;;;4.30;3.38;;;;;;;7.49;100.00;99313.59;6163642;23;20352;-84
2022/03/04 07:57:54;;;;;;;3.53;2.85;;;;;;;7.26;100.00;99331.75;6162951;23;20348;-83
2022/03/04 08:00:24;;;;;;;4.45;3.35;;;;;;;7.28;100.00;99307.09;6189565;23;20021;-83
2022/03/04 08:02:54;;;;;;;4.60;2.72;;;;;;;6.97;100.00;99322.63;6190110;23;20376;-84
2022/03/04 08:05:23;;;;;;;3.78;2.60;;;;;;;7.27;100.00;99315.09;6162550;23;20005;-83
2022/03/04 08:07:49;;;;;;;3.20;2.50;;;;;;;7.47;100.00;99327.78;6136662;23;20040;-83
2022/03/04 08:10:15;;;;;;;4.78;2.55;;;;;;;7.18;100.00;99326.53;6161513;23;20009;-83
2022/03/04 08:12:41;;;;;;;3.60;2.90;;;;;;;7.58;100.00;99336.09;6167124;23;20013;-81
2022/03/04 08:15:10;;;;;;;4.32;3.25;;;;;;;7.70;100.00;99326.06;6140433;23;20076;-82
2022/03/04 08:17:36;;;;;;;5.05;3.30;;;;;;;7.80;100.00;99328.50;6161783;23;20052;-82
2022/03/04 08:20:03;;;;;;;5.55;3.55;;;;;;;7.57;100.00;99334.44;6162241;23;20462;-82
2022/03/04 08:22:29;;;;;;;2.90;2.50;;;;;;;7.51;100.00;99363.03;6188056;23;20009;-82
2022/03/04 08:24:56;;;;;;;2.42;2.05;;;;;;;7.08;100.00;99329.31;6162539;23;20009;-84
2022/03/04 08:27:22;;;;;;;1.85;1.65;;;;;;;7.17;100.00;99380.53;6137442;23;20020;-82
2022/03/04 08:29:48;;;;;;;2.35;1.55;;;;;;;7.12;100.00;99372.41;6187593;23;20020;-84
2022/03/04 08:32:16;;;;;;;1.90;1.70;;;;;;;7.21;100.00;99379.22;6187396;23;20039;-82
2022/03/04 08:34:42;;;;;;;1.70;1.58;;;;;;;7.03;100.00;99370.75;6186149;23;21119;-86
2022/03/04 08:37:08;;;;;;;1.85;1.55;;;;;;;7.39;100.00;99396.53;6136064;23;20023;-81
2022/03/04 08:39:34;;;;;;;1.60;1.50;;;;;;;7.39;100.00;99383.47;6158960;23;20351;-84
2022/03/04 08:42:00;;;;;;;1.50;1.40;;;;;;;7.28;100.00;99380.22;6159824;23;20111;-81
2022/03/04 08:44:26;;;;;;;3.53;1.75;;;;;;;7.14;100.00;99386.09;6185494;23;20040;-85
2022/03/04 08:46:51;;;;;;;3.33;1.08;;;;;;;6.86;100.00;99394.22;6134964;23;20024;-83
2022/03/04 08:49:19;;;;;;;1.35;1.25;;;;;;;6.84;100.00;99380.53;6185696;23;20140;-82
2022/03/04 08:51:45;;;;;;;1.50;1.10;;;;;;;6.93;100.00;99403.06;6135061;23;20016;-82
2022/03/04 08:54:11;;;;;;;1.50;1.20;;;;;;;7.14;100.00;99401.75;6160286;23;20017;-86
2022/03/04 08:56:37;;;;;;;1.77;1.15;;;;;;;7.23;100.00;99403.38;6135779;23;20044;-83
2022/03/04 08:59:03;;;;;;;1.27;1.17;;;;;;;7.20;100.00;99390.66;6186755;23;20009;-86
2022/03/04 09:01:29;;;;;;;1.00;0.90;;;;;;;6.94;100.00;99398.63;6187362;23;20009;-83
2022/03/04 09:03:56;;;;;;;1.30;1.10;;;;;;;7.09;100.00;99404.06;6160208;23;20009;-84
2022/03/04 09:06:22;;;;;;;1.40;1.25;;;;;;;6.51;100.00;99375.28;6186800;23;20009;-85
2022/03/04 09:08:48;;;;;;;1.40;1.30;;;;;;;6.99;100.00;99405.00;6164499;23;20446;-83
2022/03/04 09:11:20;;;;;;;1.58;1.38;;;;;;;7.08;100.00;99415.47;6160294;23;20009;-81
2022/03/04 09:13:46;;;;;;;1.45;1.17;;;;;;;6.35;100.00;99366.41;6140059;23;20041;-82
2022/03/04 09:16:12;;;;;;;1.95;0.98;;;;;;;6.81;100.00;99399.94;6167808;23;20025;-81
2022/03/04 09:18:38;;;;;;;2.35;1.15;;;;;;;6.86;100.00;99379.41;6139979;23;20067;-83
2022/03/04 09:21:04;;;;;;;1.25;1.10;;;;;;;7.09;100.00;99394.41;6139224;23;20075;-86
2022/03/04 09:23:36;;;;;;;1.83;1.55;;;;;;;7.14;100.00;99375.66;6195156;23;20008;-86
2022/03/04 09:26:02;;;;;;;1.55;1.30;;;;;;;7.47;100.00;99388.69;6196411;23;20352;-84
2022/03/04 09:28:29;;;;;;;1.42;1.20;;;;;;;7.55;100.00;99377.38;6165663;23;20020;-84
2022/03/04 09:30:56;;;;;;;1.50;1.20;;;;;;;7.36;100.00;99407.31;6166784;23;20013;-86
2022/03/04 09:33:21;;;;;;;1.70;1.20;;;;;;;7.16;100.00;99376.31;6169378;23;20013;-85
2022/03/04 09:35:47;;;;;;;1.85;1.30;;;;;;;7.22;100.00;99406.16;6163730;23;20028;-83
2022/03/04 09:38:13;;;;;;;2.72;1.52;;;;;;;7.16;100.00;99415.47;6137757;23;20087;-82
2022/03/04 09:40:39;;;;;;;1.90;1.48;;;;;;;7.47;100.00;99409.59;6161178;23;20107;-82
2022/03/04 09:43:07;;;;;;;3.35;1.80;;;;;;;7.58;100.00;99417.06;6160508;23;20107;-81
2022/03/04 09:45:33;;;;;;;2.40;1.67;;;;;;;7.69;100.00;99407.25;6160648;23;20016;-83
2022/03/04 09:48:02;;;;;;;4.43;2.20;;;;;;;7.28;100.00;99389.84;6161636;23;20044;-83
2022/03/04 09:50:30;;;;;;;3.63;1.95;;;;;;;7.95;100.00;99414.06;6162636;23;20340;-84
2022/03/04 09:52:56;;;;;;;7.63;3.60;;;;;;;7.42;100.00;99409.25;6161479;23;20020;-84
2022/03/04 09:55:22;;;;;;;4.68;3.20;;;;;;;7.81;100.00;99408.53;6160702;23;20072;-82
2022/03/04 09:57:48;;;;;;;4.70;3.17;;;;;;;7.50;100.00;99403.19;6135993;23;20016;-84
2022/03/04 10:00:14;;;;;;;5.38;2.88;;;;;;;7.64;100.00;99423.44;6187025;23;20017;-84
2022/03/04 10:02:40;;;;;;;3.35;2.40;;;;;;;7.53;100.00;99406.31;6160700;23;20020;-83
2022/03/04 10:05:08;;;;;;;3.75;2.72;;;;;;;7.70;100.00;99409.69;6187232;23;20013;-83
2022/03/04 10:07:52;;;;;;;4.88;2.50;;;;;;;7.49;100.00;99407.63;6160425;23;20100;-85
2022/03/04 10:10:21;;;;;;;4.10;2.97;;;;;;;8.02;100.00;99430.69;6187412;23;20013;-84
2022/03/04 10:12:55;;;;;;;2.97;2.17;;;;;;;7.50;100.00;99427.53;6189317;23;20008;-84
2022/03/04 10:15:22;;;;;;;4.75;2.30;;;;;;;7.43;100.00;99413.47;6139816;23;20021;-85
2022/03/04 10:18:02;;;;;;;3.30;2.60;;;;;;;7.79;100.00;99401.84;6140717;23;20043;-83
2022/03/04 10:20:37;;;;;;;5.57;2.30;;;;;;;7.75;100.00;99429.28;6162571;23;20071;-84
2022/03/04 10:23:20;;;;;;;2.92;1.95;;;;;;;7.63;100.00;99428.81;6161563;23;20494;-87
2022/03/04 10:25:49;;;;;;;2.45;1.83;;;;;;;7.24;100.00;99418.06;6161013;23;20009;-86
2022/03/04 10:28:18;;;;;;;10.15;5.90;;;;;;;7.47;100.00;99433.09;6134811;23;20514;-83
2022/03/04 10:30:47;;;;;;;14.32;7.05;;;;;;;7.75;100.00;99419.66;6160796;23;20017;-85
2022/03/04 10:33:16;;;;;;;20.40;11.57;;;;;;;7.93;100.00;99435.13;6160177;23;20017;-85
2022/03/04 10:35:42;;;;;;;8.35;4.28;;;;;;;7.63;100.00;99439.25;6160160;23;20506;-85
2022/03/04 10:38:23;;;;;;;7.28;5.03;;;;;;;7.93;100.00;99439.53;6186740;23;20463;-84
2022/03/04 10:40:50;;;;;;;7.85;4.30;;;;;;;8.07;100.00;99443.25;6135010;23;20021;-84
2022/03/04 10:43:23;;;;;;;2.65;2.20;;;;;;;8.31;100.00;99457.22;6135389;23;20435;-85
2022/03/04 10:46:00;;;;;;;8.80;4.05;;;;;;;8.04;100.00;99441.78;6135114;23;20044;-85
2022/03/04 10:48:26;;;;;;;4.40;3.42;;;;;;;8.53;100.00;99461.75;6159979;23;20044;-85
2022/03/04 10:50:54;;;;;;;3.83;2.05;;;;;;;8.75;100.00;99450.69;6188117;23;20013;-85
2022/03/04 10:53:28;;;;;;;3.65;2.40;;;;;;;8.43;100.00;99453.28;6189282;23;20012;-87
2022/03/04 10:55:57;;;;;;;5.60;2.95;;;;;;;9.01;100.00;99463.47;6191298;23;20013;-84
2022/03/04 10:58:31;;;;;;;5.88;3.40;;;;;;;8.62;100.00;99457.28;6192158;23;20063;-85
2022/03/04 11:00:57;;;;;;;7.05;4.30;;;;;;;8.32;100.00;99461.47;6162760;23;20013;-86
2022/03/04 11:03:28;;;;;;;8.68;5.03;;;;;;;8.74;100.00;99462.16;6165470;23;20013;-85
2022/03/04 11:06:03;;;;;;;6.57;5.40;;;;;;;9.04;100.00;99465.72;6139450;23;20355;-84
2022/03/04 11:08:29;;;;;;;6.28;4.43;;;;;;;8.99;100.00;99453.16;6179032;23;20009;-84
2022/03/04 11:10:56;;;;;;;2.70;2.15;;;;;;;8.43;100.00;99464.53;6138652;23;20016;-85
2022/03/04 11:13:23;;;;;;;5.47;2.60;;;;;;;8.64;100.00;99447.47;6189341;23;20459;-86
2022/03/04 11:15:50;;;;;;;2.80;1.85;;;;;;;8.43;100.00;99466.34;6138021;23;20028;-84
2022/03/04 11:18:18;;;;;;;4.85;2.47;;;;;;;8.41;100.00;99463.91;6163443;23;20428;-84
2022/03/04 11:35:47;;;;;;;4.85;2.35;;;;;;;9.41;100.00;99450.22;6188966;23;20405;-84
2022/03/04 11:38:13;;;;;;;6.05;3.10;;;;;;;9.39;100.00;99454.84;6188853;23;20017;-88
2022/03/04 11:40:50;;;;;;;6.03;2.22;;;;;;;9.63;100.00;99445.13;6138416;23;20012;-85
2022/03/04 11:43:16;;;;;;;5.07;2.70;;;;;;;9.82;100.00;99452.47;6164693;23;20013;-86